createdAt,value
2023-05-09T00:01:50.112Z,43.01
2023-05-09T00:04:17.905Z,43.40
2023-05-09T00:06:45.808Z,43.33
2023-05-09T00:09:13.217Z,44.59
2023-05-09T00:11:40.893Z,43.65
2023-05-09T00:14:08.287Z,42.85
2023-05-09T00:16:36.823Z,44.29
2023-05-09T00:19:04.557Z,44.62
2023-05-09T00:21:31.921Z,43.31
2023-05-09T00:24:00.440Z,44.37
2023-05-09T00:26:28.162Z,43.37
2023-05-09T00:28:55.502Z,44.72
2023-05-09T00:31:22.945Z,44.85
2023-05-09T00:33:50.616Z,44.11
2023-05-09T00:36:18.019Z,44.25
2023-05-09T00:38:45.368Z,44.27
2023-05-09T00:41:12.977Z,43.70
2023-05-09T00:43:40.392Z,43.73
2023-05-09T00:46:08.667Z,44.25
2023-05-09T00:48:36.383Z,43.82
2023-05-09T00:51:04.876Z,43.62
2023-05-09T00:53:32.342Z,44.46
2023-05-09T00:56:00.323Z,44.60
2023-05-09T00:58:27.828Z,44.20
2023-05-09T01:00:55.251Z,43.98
2023-05-09T01:03:23.076Z,44.48
2023-05-09T01:06:00.204Z,44.68
2023-05-09T01:09:08.940Z,45.17
2023-05-09T01:12:03.712Z,44.72
2023-05-09T01:14:51.654Z,44.92
2023-05-09T01:17:36.289Z,44.20
2023-05-09T01:20:28.664Z,44.36
2023-05-09T01:23:05.547Z,43.81
2023-05-09T01:25:51.508Z,45.78
2023-05-09T01:28:34.012Z,43.99
2023-05-09T01:31:01.727Z,45.16
2023-05-09T01:33:29.137Z,45.97
2023-05-09T01:35:59.773Z,45.94
2023-05-09T01:38:27.412Z,44.81
2023-05-09T01:40:55.323Z,45.37
2023-05-09T01:43:23.271Z,44.95
2023-05-09T01:45:50.868Z,45.45
2023-05-09T01:48:18.241Z,45.39
2023-05-09T01:50:45.897Z,44.91
2023-05-09T01:53:13.897Z,45.13
2023-05-09T01:55:41.609Z,45.65
2023-05-09T01:58:09.012Z,44.92
2023-05-09T02:00:36.754Z,44.84
2023-05-09T02:03:04.930Z,44.76
2023-05-09T02:05:33.178Z,44.35
2023-05-09T02:08:01.382Z,43.67
2023-05-09T02:10:29.191Z,44.88
2023-05-09T02:12:57.442Z,45.89
2023-05-09T02:15:25.045Z,46.18
2023-05-09T02:17:52.709Z,46.13
2023-05-09T02:20:20.127Z,45.55
2023-05-09T02:22:47.433Z,46.01
2023-05-09T02:25:15.686Z,46.32
2023-05-09T02:27:44.499Z,45.91
2023-05-09T02:30:17.296Z,46.71
2023-05-09T02:32:45.708Z,44.82
2023-05-09T02:35:13.406Z,44.98
2023-05-09T02:37:40.997Z,46.88
2023-05-09T02:40:09.267Z,46.21
2023-05-09T02:42:36.673Z,46.31
2023-05-09T02:45:04.334Z,46.41
2023-05-09T02:47:32.169Z,46.62
2023-05-09T02:49:59.543Z,47.62
2023-05-09T02:52:27.474Z,46.65
2023-05-09T02:54:55.135Z,47.58
2023-05-09T02:57:22.626Z,47.61
2023-05-09T02:59:50.017Z,47.96
2023-05-09T03:02:17.748Z,47.27
2023-05-09T03:04:45.441Z,47.53
2023-05-09T03:07:12.806Z,47.73
2023-05-09T03:09:41.287Z,48.94
2023-05-09T03:12:09.180Z,48.02
2023-05-09T03:14:36.728Z,48.46
2023-05-09T03:17:04.466Z,47.68
2023-05-09T03:19:32.545Z,48.35
2023-05-09T03:21:59.964Z,48.47
2023-05-09T03:24:28.475Z,48.11
2023-05-09T03:26:55.799Z,46.85
2023-05-09T03:29:23.212Z,48.20
2023-05-09T03:31:51.038Z,47.61
2023-05-09T03:34:18.761Z,47.22
2023-05-09T03:36:46.203Z,47.18
2023-05-09T03:39:14.209Z,46.92
2023-05-09T03:41:43.602Z,46.83
2023-05-09T03:44:11.275Z,46.69
2023-05-09T03:46:38.944Z,47.63
2023-05-09T03:49:06.554Z,47.84
2023-05-09T03:51:34.509Z,48.12
2023-05-09T03:54:02.485Z,48.17
2023-05-09T03:56:30.159Z,47.50
2023-05-09T03:58:57.723Z,52.05
2023-05-09T04:01:25.604Z,49.39
2023-05-09T04:03:53.810Z,51.06
2023-05-09T04:06:21.519Z,48.60
2023-05-09T04:08:48.932Z,47.49
2023-05-09T04:11:16.539Z,48.66
2023-05-09T04:13:44.251Z,47.44
2023-05-09T04:16:13.201Z,48.70
2023-05-09T04:18:42.237Z,47.70
2023-05-09T04:21:09.724Z,46.82
2023-05-09T04:23:38.906Z,47.56
2023-05-09T04:26:07.455Z,47.05
2023-05-09T04:28:35.357Z,47.41
2023-05-09T04:31:03.280Z,48.14
2023-05-09T04:33:31.524Z,47.72
2023-05-09T04:35:59.944Z,47.07
2023-05-09T04:38:27.602Z,47.06
2023-05-09T04:40:55.484Z,46.86
2023-05-09T04:43:22.883Z,46.28
2023-05-09T04:45:50.404Z,45.38
2023-05-09T04:48:18.094Z,45.41
2023-05-09T04:50:48.343Z,42.90
2023-05-09T04:53:15.817Z,43.33
2023-05-09T04:55:44.167Z,41.76
2023-05-09T04:58:11.875Z,41.39
2023-05-09T05:00:39.702Z,38.91
2023-05-09T05:03:08.118Z,38.81
2023-05-09T05:05:37.408Z,36.07
2023-05-09T05:08:05.872Z,32.40
2023-05-09T05:10:34.206Z,31.44
2023-05-09T05:13:02.287Z,31.16
2023-05-09T05:15:29.787Z,30.96
2023-05-09T05:17:57.890Z,33.11
2023-05-09T05:20:26.228Z,34.69
2023-05-09T05:22:54.983Z,32.88
2023-05-09T05:25:23.650Z,30.83
2023-05-09T05:27:51.497Z,28.51
2023-05-09T05:30:20.950Z,30.53
2023-05-09T05:32:49.316Z,31.19
2023-05-09T05:35:17.704Z,28.83
2023-05-09T05:37:46.092Z,27.43
2023-05-09T05:40:14.852Z,26.98
2023-05-09T05:42:44.219Z,26.38
2023-05-09T05:45:12.394Z,24.97
2023-05-09T05:47:41.147Z,24.58
2023-05-09T05:50:12.012Z,23.63
2023-05-09T05:52:40.379Z,24.34
2023-05-09T05:55:08.959Z,25.10
2023-05-09T05:57:37.720Z,23.56
2023-05-09T06:00:11.355Z,24.72
2023-05-09T06:02:53.187Z,26.09
2023-05-09T06:05:21.166Z,26.71
2023-05-09T06:07:48.583Z,26.55
2023-05-09T06:10:17.161Z,27.36
2023-05-09T06:12:45.626Z,29.76
2023-05-09T06:15:13.385Z,28.21
2023-05-09T06:17:43.698Z,25.11
2023-05-09T06:20:11.531Z,25.17
2023-05-09T06:22:39.001Z,25.29
2023-05-09T06:25:08.682Z,26.33
2023-05-09T06:27:38.388Z,26.59
2023-05-09T06:30:21.388Z,26.21
2023-05-09T06:32:53.287Z,24.78
2023-05-09T06:35:20.859Z,25.62
2023-05-09T06:37:49.015Z,24.93
2023-05-09T06:40:17.168Z,25.64
2023-05-09T06:42:44.962Z,24.29
2023-05-09T06:45:12.697Z,23.41
2023-05-09T06:47:40.495Z,22.56
2023-05-09T06:50:08.576Z,23.54
2023-05-09T06:52:35.979Z,21.75
2023-05-09T06:55:04.340Z,20.39
2023-05-09T06:57:31.815Z,20.25
2023-05-09T06:59:59.211Z,22.83
2023-05-09T07:02:26.959Z,21.74
2023-05-09T07:04:54.376Z,22.82
2023-05-09T07:07:22.222Z,23.66
2023-05-09T07:09:52.978Z,22.83
2023-05-09T07:12:22.790Z,22.36
2023-05-09T07:14:50.439Z,22.74
2023-05-09T07:17:23.441Z,21.51
2023-05-09T07:19:51.942Z,22.64
2023-05-09T07:22:19.474Z,21.01
2023-05-09T07:24:47.151Z,19.76
2023-05-09T07:27:14.863Z,20.71
2023-05-09T07:29:42.325Z,18.51
2023-05-09T07:32:09.892Z,19.62
2023-05-09T07:34:37.544Z,19.44
2023-05-09T07:37:04.883Z,20.25
2023-05-09T07:39:32.354Z,19.54
2023-05-09T07:41:59.992Z,20.67
2023-05-09T07:44:27.355Z,20.91
2023-05-09T07:46:55.560Z,20.04
2023-05-09T07:49:23.163Z,20.04
2023-05-09T07:51:50.562Z,22.52
2023-05-09T07:54:17.959Z,22.07
2023-05-09T07:56:45.573Z,21.01
2023-05-09T07:59:12.931Z,18.97
2023-05-09T08:01:40.459Z,19.46
2023-05-09T08:04:09.167Z,18.68
2023-05-09T08:06:36.706Z,20.14
2023-05-09T08:09:04.826Z,20.41
2023-05-09T08:11:36.079Z,19.76
2023-05-09T08:14:03.552Z,20.19
2023-05-09T08:16:31.161Z,18.55
2023-05-09T08:18:58.838Z,20.07
2023-05-09T08:21:26.607Z,20.08
2023-05-09T08:23:53.962Z,19.37
2023-05-09T08:26:22.725Z,18.62
2023-05-09T08:28:50.086Z,19.14
2023-05-09T08:31:17.523Z,19.71
2023-05-09T08:33:45.160Z,19.44
2023-05-09T08:36:12.557Z,18.65
2023-05-09T08:38:40.586Z,17.87
2023-05-09T08:41:08.322Z,17.99
2023-05-09T08:43:35.750Z,15.84
2023-05-09T08:46:10.105Z,19.56
2023-05-09T08:48:37.756Z,17.38
2023-05-09T08:51:06.235Z,17.98
2023-05-09T08:53:34.258Z,17.73
2023-05-09T08:56:03.592Z,20.82
2023-05-09T08:58:31.515Z,21.10
2023-05-09T09:00:58.942Z,20.27
2023-05-09T09:03:26.625Z,19.72
2023-05-09T09:05:54.875Z,19.46
2023-05-09T09:08:22.596Z,17.72
2023-05-09T09:10:50.436Z,15.88
2023-05-09T09:13:18.076Z,16.68
2023-05-09T09:15:46.424Z,18.49
2023-05-09T09:18:23.847Z,17.42
2023-05-09T09:21:04.068Z,20.62
2023-05-09T09:23:31.719Z,17.35
2023-05-09T09:26:00.232Z,17.07
2023-05-09T09:28:28.167Z,16.19
2023-05-09T09:30:55.841Z,16.77
2023-05-09T09:33:24.289Z,16.30
2023-05-09T09:35:53.199Z,17.18
2023-05-09T09:38:23.414Z,16.07
2023-05-09T09:40:56.801Z,17.77
2023-05-09T09:43:30.914Z,16.90
2023-05-09T09:46:04.900Z,18.62
2023-05-09T09:48:34.324Z,19.12
2023-05-09T09:51:11.368Z,18.82
2023-05-09T09:53:42.767Z,20.16
2023-05-09T09:56:10.274Z,20.54
2023-05-09T09:58:37.618Z,17.96
2023-05-09T10:01:16.657Z,20.79
2023-05-09T10:03:45.901Z,21.09
2023-05-09T10:06:14.564Z,22.17
2023-05-09T10:08:46.759Z,21.78
2023-05-09T10:11:14.474Z,22.94
2023-05-09T10:13:42.531Z,21.54
2023-05-09T10:16:10.587Z,22.30
2023-05-09T10:18:38.640Z,22.54
2023-05-09T10:21:06.438Z,24.73
2023-05-09T10:23:34.985Z,25.31
2023-05-09T10:26:16.770Z,24.21
2023-05-09T10:28:45.558Z,25.02
2023-05-09T10:31:16.453Z,25.79
2023-05-09T10:33:47.311Z,23.21
2023-05-09T10:36:17.037Z,22.86
2023-05-09T10:38:44.930Z,23.84
2023-05-09T10:41:12.648Z,23.24
2023-05-09T10:43:40.318Z,23.60
2023-05-09T10:46:07.802Z,24.63
2023-05-09T10:48:35.290Z,26.38
2023-05-09T10:51:03.482Z,25.29
2023-05-09T10:53:41.492Z,25.29
2023-05-09T10:56:09.110Z,28.30
2023-05-09T10:58:37.513Z,28.62
2023-05-09T11:01:05.073Z,28.14
2023-05-09T11:03:53.681Z,29.74
2023-05-09T11:06:39.818Z,29.72
2023-05-09T11:09:35.815Z,30.04
2023-05-09T11:12:06.156Z,30.76
2023-05-09T11:14:47.488Z,29.91
2023-05-09T11:17:14.718Z,31.70
2023-05-09T11:19:48.084Z,30.68
2023-05-09T11:22:19.765Z,31.71
2023-05-09T11:24:47.849Z,31.17
2023-05-09T11:27:26.010Z,31.52
2023-05-09T11:29:54.948Z,29.79
2023-05-09T11:32:23.344Z,29.34
2023-05-09T11:34:50.869Z,28.30
2023-05-09T11:37:19.400Z,28.12
2023-05-09T11:40:00.742Z,27.34
2023-05-09T11:42:28.563Z,27.83
2023-05-09T11:44:58.865Z,27.99
2023-05-09T11:47:26.372Z,30.05
2023-05-09T11:49:54.137Z,27.93
2023-05-09T11:52:22.157Z,28.04
2023-05-09T11:54:50.333Z,28.87
2023-05-09T11:57:18.187Z,29.69
2023-05-09T11:59:45.619Z,30.25
2023-05-09T12:02:13.509Z,29.44
2023-05-09T12:04:41.283Z,28.66
2023-05-09T12:07:08.945Z,28.72
2023-05-09T12:09:39.195Z,29.23
2023-05-09T12:12:13.612Z,29.26
2023-05-09T12:14:41.320Z,29.82
2023-05-09T12:17:09.586Z,28.42
2023-05-09T12:19:37.016Z,30.08
2023-05-09T12:22:05.523Z,29.70
2023-05-09T12:24:35.511Z,29.70
2023-05-09T12:27:02.891Z,27.89
2023-05-09T12:29:30.706Z,29.40
2023-05-09T12:31:59.447Z,28.08
2023-05-09T12:34:26.842Z,28.46
2023-05-09T12:36:54.192Z,28.65
2023-05-09T12:39:23.056Z,28.22
2023-05-09T12:42:00.968Z,27.47
2023-05-09T12:44:30.005Z,29.13
2023-05-09T12:47:03.711Z,28.96
2023-05-09T12:49:32.123Z,27.48
2023-05-09T12:52:02.269Z,28.29
2023-05-09T12:54:31.503Z,28.25
2023-05-09T12:56:58.922Z,27.96
2023-05-09T12:59:27.293Z,28.26
2023-05-09T13:01:56.584Z,28.57
2023-05-09T13:04:25.187Z,28.93
2023-05-09T13:06:56.195Z,29.58
2023-05-09T13:09:24.377Z,29.70
2023-05-09T13:11:51.957Z,30.08
2023-05-09T13:14:20.449Z,29.54
2023-05-09T13:16:48.096Z,30.09
2023-05-09T13:19:16.359Z,30.31
2023-05-09T13:21:43.806Z,31.20
2023-05-09T13:24:11.455Z,30.00
2023-05-09T13:26:38.886Z,28.93
2023-05-09T13:29:06.237Z,29.07
2023-05-09T13:31:33.893Z,28.76
2023-05-09T13:34:01.289Z,30.29
2023-05-09T13:36:28.631Z,32.95
2023-05-09T13:38:56.319Z,31.40
2023-05-09T13:41:24.095Z,31.08
2023-05-09T13:43:51.683Z,30.92
2023-05-09T13:46:19.370Z,32.08
2023-05-09T13:48:47.837Z,32.16
2023-05-09T13:51:15.240Z,30.50
2023-05-09T13:53:42.829Z,31.71
2023-05-09T13:56:10.180Z,30.91
2023-05-09T13:58:37.584Z,31.92
2023-05-09T14:01:05.241Z,31.81
2023-05-09T14:03:33.265Z,31.75
2023-05-09T14:06:00.694Z,30.99
2023-05-09T14:08:28.070Z,31.43
2023-05-09T14:10:55.854Z,31.51
2023-05-09T14:13:23.391Z,30.77
2023-05-09T14:15:50.853Z,31.01
2023-05-09T14:18:20.209Z,31.72
2023-05-09T14:20:48.598Z,31.46
2023-05-09T14:23:16.276Z,30.26
2023-05-09T14:25:43.885Z,31.12
2023-05-09T14:28:11.985Z,31.74
2023-05-09T14:30:39.369Z,31.29
2023-05-09T14:33:07.461Z,31.15
2023-05-09T14:35:34.910Z,30.91
2023-05-09T14:38:02.323Z,31.35
2023-05-09T14:40:31.928Z,31.36
2023-05-09T14:43:02.334Z,31.84
2023-05-09T14:45:31.391Z,31.92
2023-05-09T14:47:59.548Z,30.75
2023-05-09T14:50:26.922Z,32.55
2023-05-09T14:52:54.553Z,32.78
2023-05-09T14:55:23.131Z,31.96
2023-05-09T14:57:50.560Z,31.66
2023-05-09T15:00:21.720Z,32.74
2023-05-09T15:02:50.062Z,33.06
2023-05-09T15:05:18.101Z,31.37
2023-05-09T15:07:45.665Z,30.72
2023-05-09T15:10:13.196Z,30.28
2023-05-09T15:12:41.042Z,30.96
2023-05-09T15:15:18.946Z,30.64
2023-05-09T15:17:46.888Z,31.54
2023-05-09T15:20:18.167Z,30.77
2023-05-09T15:22:49.627Z,31.98
2023-05-09T15:25:17.515Z,31.92
2023-05-09T15:27:44.909Z,31.69
2023-05-09T15:30:12.693Z,31.91
2023-05-09T15:32:43.230Z,30.42
2023-05-09T15:35:10.696Z,31.63
2023-05-09T15:37:38.478Z,31.96
2023-05-09T15:40:07.521Z,32.58
2023-05-09T15:42:35.055Z,31.61
2023-05-09T15:45:03.695Z,33.60
2023-05-09T15:47:31.559Z,34.86
2023-05-09T15:49:58.925Z,34.26
2023-05-09T15:52:27.590Z,33.27
2023-05-09T15:54:55.611Z,33.52
2023-05-09T15:57:23.157Z,33.99
2023-05-09T15:59:50.576Z,33.28
2023-05-09T16:02:18.255Z,34.13
2023-05-09T16:04:45.868Z,34.02
2023-05-09T16:07:13.240Z,34.25
2023-05-09T16:09:40.642Z,32.71
2023-05-09T16:12:09.385Z,33.73
2023-05-09T16:14:36.879Z,33.76
2023-05-09T16:17:04.536Z,34.99
2023-05-09T16:19:33.675Z,35.46
2023-05-09T16:22:02.402Z,34.44
2023-05-09T16:24:31.795Z,35.19
2023-05-09T16:26:59.503Z,35.01
2023-05-09T16:29:28.554Z,34.96
2023-05-09T16:31:56.028Z,34.20
2023-05-09T16:34:23.703Z,35.58
2023-05-09T16:36:52.245Z,35.39
2023-05-09T16:39:19.636Z,35.64
2023-05-09T16:41:47.346Z,36.09
2023-05-09T16:44:15.422Z,35.59
2023-05-09T16:46:42.973Z,36.24
2023-05-09T16:49:11.157Z,35.32
2023-05-09T16:51:38.637Z,35.18
2023-05-09T16:54:06.054Z,34.92
2023-05-09T16:56:34.346Z,34.56
2023-05-09T16:59:01.803Z,34.74
2023-05-09T17:01:29.373Z,35.67
2023-05-09T17:03:57.162Z,34.58
2023-05-09T17:06:24.547Z,34.15
2023-05-09T17:08:51.903Z,33.89
2023-05-09T17:11:19.570Z,34.35
2023-05-09T17:13:46.959Z,34.82
2023-05-09T17:16:14.323Z,34.06
2023-05-09T17:18:45.963Z,34.76
2023-05-09T17:21:16.734Z,34.87
2023-05-09T17:23:44.378Z,34.49
2023-05-09T17:26:11.782Z,35.11
2023-05-09T17:28:39.151Z,35.04
2023-05-09T17:31:06.830Z,35.01
2023-05-09T17:33:34.287Z,35.40
2023-05-09T17:36:01.673Z,35.38
2023-05-09T17:38:30.114Z,34.69
2023-05-09T17:40:57.504Z,35.12
2023-05-09T17:43:24.904Z,34.65
2023-05-09T17:45:52.599Z,35.95
2023-05-09T17:48:20.082Z,35.23
2023-05-09T17:50:47.578Z,35.50
2023-05-09T17:53:15.190Z,35.25
2023-05-09T17:55:42.663Z,35.47
2023-05-09T17:58:10.113Z,36.00
2023-05-09T18:00:37.766Z,36.17
2023-05-09T18:03:05.288Z,35.36
2023-05-09T18:05:33.015Z,36.15
2023-05-09T18:08:01.287Z,37.15
2023-05-09T18:10:29.064Z,36.43
2023-05-09T18:12:57.153Z,36.71
2023-05-09T18:15:24.716Z,37.00
2023-05-09T18:17:53.799Z,37.31
2023-05-09T18:20:21.912Z,37.28
2023-05-09T18:22:49.271Z,38.45
2023-05-09T18:25:17.504Z,37.00
2023-05-09T18:27:45.210Z,37.59
2023-05-09T18:30:12.992Z,37.80
2023-05-09T18:32:40.933Z,37.90
2023-05-09T18:35:08.877Z,37.08
2023-05-09T18:37:36.922Z,38.24
2023-05-09T18:40:05.426Z,36.93
2023-05-09T18:42:32.999Z,37.71
2023-05-09T18:45:01.002Z,37.30
2023-05-09T18:47:28.448Z,36.71
2023-05-09T18:49:56.086Z,37.84
2023-05-09T18:52:23.530Z,38.01
2023-05-09T18:54:50.866Z,37.93
2023-05-09T18:57:19.659Z,37.80
2023-05-09T18:59:47.088Z,38.30
2023-05-09T19:02:14.572Z,38.73
2023-05-09T19:04:42.293Z,37.57
2023-05-09T19:07:10.102Z,37.85
2023-05-09T19:09:37.494Z,39.01
2023-05-09T19:12:05.811Z,38.56
2023-05-09T19:14:33.165Z,38.29
2023-05-09T19:17:00.660Z,38.80
2023-05-09T19:19:28.434Z,38.84
2023-05-09T19:21:55.767Z,38.13
2023-05-09T19:24:23.136Z,38.05
2023-05-09T19:26:51.101Z,38.32
2023-05-09T19:29:18.448Z,37.99
2023-05-09T19:31:45.920Z,37.70
2023-05-09T19:34:13.619Z,37.91
2023-05-09T19:36:41.054Z,38.26
2023-05-09T19:39:09.085Z,38.60
2023-05-09T19:41:36.839Z,38.42
2023-05-09T19:44:04.353Z,38.89
2023-05-09T19:46:31.765Z,40.15
2023-05-09T19:48:59.484Z,39.93
2023-05-09T19:51:26.935Z,39.15
2023-05-09T19:53:54.392Z,39.55
2023-05-09T19:56:23.263Z,39.38
2023-05-09T19:58:50.728Z,39.47
2023-05-09T20:01:19.031Z,41.02
2023-05-09T20:03:47.121Z,40.40
2023-05-09T20:06:14.590Z,40.63
2023-05-09T20:08:41.925Z,40.51
2023-05-09T20:11:09.461Z,40.99
2023-05-09T20:13:36.742Z,41.90
2023-05-09T20:16:04.178Z,41.90
2023-05-09T20:18:34.966Z,40.41
2023-05-09T20:21:02.824Z,40.66
2023-05-09T20:23:30.157Z,41.19
2023-05-09T20:25:57.800Z,41.56
2023-05-09T20:28:25.197Z,40.00
2023-05-09T20:30:52.478Z,41.34
2023-05-09T20:33:20.063Z,40.95
2023-05-09T20:35:49.127Z,40.37
2023-05-09T20:38:16.513Z,40.78
2023-05-09T20:40:44.129Z,41.27
2023-05-09T20:43:11.466Z,42.60
2023-05-09T20:45:38.866Z,42.39
2023-05-09T20:48:06.732Z,41.93
2023-05-09T20:50:34.092Z,41.41
2023-05-09T20:53:01.443Z,41.99
2023-05-09T20:55:29.124Z,42.47
2023-05-09T20:57:56.434Z,43.27
2023-05-09T21:00:23.746Z,43.02
2023-05-09T21:02:51.448Z,42.81
2023-05-09T21:05:18.785Z,43.54
2023-05-09T21:07:46.069Z,44.26
2023-05-09T21:10:13.915Z,43.24
2023-05-09T21:12:41.411Z,43.73
2023-05-09T21:15:09.106Z,44.28
2023-05-09T21:17:36.779Z,44.05
2023-05-09T21:20:04.433Z,43.55
2023-05-09T21:22:31.804Z,43.87
2023-05-09T21:24:59.351Z,44.47
2023-05-09T21:27:27.038Z,43.83
2023-05-09T21:29:54.290Z,44.50
2023-05-09T21:32:21.913Z,45.99
2023-05-09T21:34:49.234Z,45.33
2023-05-09T21:37:16.525Z,45.07
2023-05-09T21:39:45.155Z,45.34
2023-05-09T21:42:12.460Z,45.47
2023-05-09T21:44:39.789Z,44.21
2023-05-09T21:47:07.420Z,44.48
2023-05-09T21:49:34.803Z,44.55
2023-05-09T21:52:02.112Z,44.75
2023-05-09T21:54:29.699Z,44.50
2023-05-09T21:56:57.091Z,44.06
2023-05-09T21:59:24.394Z,45.20
2023-05-09T22:01:52.035Z,45.84
2023-05-09T22:04:19.612Z,46.37
2023-05-09T22:06:46.934Z,46.97
2023-05-09T22:09:14.328Z,46.38
2023-05-09T22:11:42.118Z,46.93
2023-05-09T22:14:10.285Z,46.21
2023-05-09T22:16:38.215Z,45.65
2023-05-09T22:19:05.984Z,45.53
2023-05-09T22:21:33.402Z,45.74
2023-05-09T22:24:00.774Z,47.03
2023-05-09T22:26:28.389Z,46.63
2023-05-09T22:28:56.052Z,46.52
2023-05-09T22:31:23.486Z,46.68
2023-05-09T22:33:51.146Z,47.07
2023-05-09T22:36:18.444Z,45.78
2023-05-09T22:38:46.053Z,47.56
2023-05-09T22:41:14.078Z,48.02
2023-05-09T22:43:41.545Z,47.79
2023-05-09T22:46:08.932Z,47.53
2023-05-09T22:48:36.567Z,46.06
2023-05-09T22:51:04.038Z,45.80
2023-05-09T22:53:32.699Z,46.36
2023-05-09T22:56:00.339Z,47.37
2023-05-09T22:58:27.797Z,48.14
2023-05-09T23:00:55.227Z,48.02
2023-05-09T23:03:23.196Z,48.83
2023-05-09T23:05:51.164Z,48.96
2023-05-09T23:08:18.490Z,48.73
2023-05-09T23:10:46.137Z,47.82
2023-05-09T23:13:13.506Z,48.04
2023-05-09T23:15:40.967Z,52.03
2023-05-09T23:18:08.883Z,49.71
2023-05-09T23:20:36.936Z,52.91
2023-05-09T23:23:04.316Z,51.47
2023-05-09T23:25:32.045Z,51.16
2023-05-09T23:27:59.369Z,49.02
2023-05-09T23:30:26.698Z,49.50
2023-05-09T23:32:54.373Z,50.17
2023-05-09T23:35:22.265Z,50.42
2023-05-09T23:37:49.601Z,50.86
2023-05-09T23:40:17.409Z,51.54
2023-05-09T23:42:44.952Z,50.88
2023-05-09T23:45:12.829Z,50.42
2023-05-09T23:47:40.499Z,49.79
2023-05-09T23:50:08.370Z,52.19
2023-05-09T23:52:36.011Z,51.27
2023-05-09T23:55:03.864Z,50.74
2023-05-09T23:57:31.211Z,50.31
2023-05-09T23:59:58.650Z,49.91
